sensor_id;sensor_type;location;lat;lon;timestamp;P1;durP1;ratioP1;P2;durP2;ratioP2
32760;SDS011;19126;47.472;7.850;2023-04-25T00:01:15;5.97;;;2.80;;
32760;SDS011;19126;47.472;7.850;2023-04-25T00:03:43;8.30;;;2.50;;
32760;SDS011;19126;47.472;7.850;2023-04-25T00:06:11;5.72;;;2.50;;
32760;SDS011;19126;47.472;7.850;2023-04-25T00:08:39;5.80;;;2.50;;
32760;SDS011;19126;47.472;7.850;2023-04-25T00:11:08;7.30;;;2.60;;
32760;SDS011;19126;47.472;7.850;2023-04-25T00:13:36;6.15;;;2.70;;
32760;SDS011;19126;47.472;7.850;2023-04-25T00:16:06;7.20;;;3.13;;
32760;SDS011;19126;47.472;7.850;2023-04-25T00:18:34;9.23;;;2.63;;
32760;SDS011;19126;47.472;7.850;2023-04-25T00:21:01;11.00;;;3.47;;
32760;SDS011;19126;47.472;7.850;2023-04-25T00:23:31;8.35;;;3.03;;
32760;SDS011;19126;47.472;7.850;2023-04-25T00:26:00;11.25;;;3.42;;
32760;SDS011;19126;47.472;7.850;2023-04-25T00:28:29;6.13;;;3.25;;
32760;SDS011;19126;47.472;7.850;2023-04-25T00:30:56;7.30;;;3.00;;
32760;SDS011;19126;47.472;7.850;2023-04-25T00:33:24;7.20;;;3.15;;
32760;SDS011;19126;47.472;7.850;2023-04-25T00:35:52;8.40;;;3.10;;
32760;SDS011;19126;47.472;7.850;2023-04-25T00:38:19;5.10;;;2.83;;
32760;SDS011;19126;47.472;7.850;2023-04-25T00:40:47;6.28;;;3.20;;
32760;SDS011;19126;47.472;7.850;2023-04-25T00:43:14;4.22;;;2.30;;
32760;SDS011;19126;47.472;7.850;2023-04-25T00:45:43;7.13;;;3.30;;
32760;SDS011;19126;47.472;7.850;2023-04-25T00:48:13;9.80;;;3.13;;
32760;SDS011;19126;47.472;7.850;2023-04-25T00:50:40;5.00;;;2.55;;
32760;SDS011;19126;47.472;7.850;2023-04-25T00:53:08;6.93;;;2.80;;
32760;SDS011;19126;47.472;7.850;2023-04-25T00:55:36;5.43;;;2.80;;
32760;SDS011;19126;47.472;7.850;2023-04-25T00:58:03;6.75;;;2.92;;
32760;SDS011;19126;47.472;7.850;2023-04-25T01:00:30;5.10;;;2.67;;
32760;SDS011;19126;47.472;7.850;2023-04-25T01:02:59;5.38;;;2.90;;
32760;SDS011;19126;47.472;7.850;2023-04-25T01:05:27;9.45;;;3.00;;
32760;SDS011;19126;47.472;7.850;2023-04-25T01:07:55;6.00;;;2.55;;
32760;SDS011;19126;47.472;7.850;2023-04-25T01:10:23;7.43;;;2.92;;
32760;SDS011;19126;47.472;7.850;2023-04-25T01:12:50;7.90;;;2.47;;
32760;SDS011;19126;47.472;7.850;2023-04-25T01:15:17;7.32;;;2.85;;
32760;SDS011;19126;47.472;7.850;2023-04-25T01:17:45;11.15;;;3.20;;
32760;SDS011;19126;47.472;7.850;2023-04-25T01:20:15;5.15;;;2.45;;
32760;SDS011;19126;47.472;7.850;2023-04-25T01:22:44;6.47;;;3.28;;
32760;SDS011;19126;47.472;7.850;2023-04-25T01:25:12;4.30;;;2.50;;
32760;SDS011;19126;47.472;7.850;2023-04-25T01:27:40;7.28;;;3.20;;
32760;SDS011;19126;47.472;7.850;2023-04-25T01:30:08;5.20;;;3.10;;
32760;SDS011;19126;47.472;7.850;2023-04-25T01:32:36;5.10;;;3.25;;
32760;SDS011;19126;47.472;7.850;2023-04-25T01:35:04;7.70;;;3.30;;
32760;SDS011;19126;47.472;7.850;2023-04-25T01:37:34;5.63;;;3.08;;
32760;SDS011;19126;47.472;7.850;2023-04-25T01:40:04;5.80;;;3.03;;
32760;SDS011;19126;47.472;7.850;2023-04-25T01:42:33;10.75;;;2.88;;
32760;SDS011;19126;47.472;7.850;2023-04-25T01:45:03;7.20;;;2.60;;
32760;SDS011;19126;47.472;7.850;2023-04-25T01:47:32;8.95;;;3.13;;
32760;SDS011;19126;47.472;7.850;2023-04-25T01:50:00;6.00;;;3.10;;
32760;SDS011;19126;47.472;7.850;2023-04-25T01:52:27;10.13;;;3.22;;
32760;SDS011;19126;47.472;7.850;2023-04-25T01:54:55;6.68;;;3.05;;
32760;SDS011;19126;47.472;7.850;2023-04-25T01:57:24;7.72;;;3.25;;
32760;SDS011;19126;47.472;7.850;2023-04-25T01:59:51;6.55;;;2.90;;
32760;SDS011;19126;47.472;7.850;2023-04-25T02:02:23;8.98;;;3.28;;
32760;SDS011;19126;47.472;7.850;2023-04-25T02:04:51;6.85;;;3.03;;
32760;SDS011;19126;47.472;7.850;2023-04-25T02:07:19;7.28;;;3.97;;
32760;SDS011;19126;47.472;7.850;2023-04-25T02:09:46;9.80;;;3.40;;
32760;SDS011;19126;47.472;7.850;2023-04-25T02:12:13;7.93;;;4.10;;
32760;SDS011;19126;47.472;7.850;2023-04-25T02:14:42;8.80;;;3.80;;
32760;SDS011;19126;47.472;7.850;2023-04-25T02:17:10;13.75;;;4.45;;
32760;SDS011;19126;47.472;7.850;2023-04-25T02:19:38;9.95;;;4.07;;
32760;SDS011;19126;47.472;7.850;2023-04-25T02:22:06;7.18;;;4.60;;
32760;SDS011;19126;47.472;7.850;2023-04-25T02:24:33;12.60;;;3.58;;
32760;SDS011;19126;47.472;7.850;2023-04-25T02:27:00;8.75;;;3.65;;
32760;SDS011;19126;47.472;7.850;2023-04-25T02:29:28;7.55;;;3.45;;
32760;SDS011;19126;47.472;7.850;2023-04-25T02:31:57;10.25;;;4.47;;
32760;SDS011;19126;47.472;7.850;2023-04-25T02:34:24;8.02;;;3.75;;
32760;SDS011;19126;47.472;7.850;2023-04-25T02:36:52;6.32;;;3.80;;
32760;SDS011;19126;47.472;7.850;2023-04-25T02:39:20;7.03;;;3.83;;
32760;SDS011;19126;47.472;7.850;2023-04-25T02:41:50;7.07;;;3.13;;
32760;SDS011;19126;47.472;7.850;2023-04-25T02:44:17;5.65;;;2.90;;
32760;SDS011;19126;47.472;7.850;2023-04-25T02:46:45;5.88;;;3.78;;
32760;SDS011;19126;47.472;7.850;2023-04-25T02:49:13;10.15;;;5.10;;
32760;SDS011;19126;47.472;7.850;2023-04-25T02:51:41;5.25;;;3.10;;
32760;SDS011;19126;47.472;7.850;2023-04-25T02:54:08;7.78;;;3.15;;
32760;SDS011;19126;47.472;7.850;2023-04-25T02:56:35;7.85;;;3.50;;
32760;SDS011;19126;47.472;7.850;2023-04-25T02:59:03;6.47;;;3.75;;
32760;SDS011;19126;47.472;7.850;2023-04-25T03:01:30;8.10;;;3.47;;
32760;SDS011;19126;47.472;7.850;2023-04-25T03:03:57;11.07;;;3.30;;
32760;SDS011;19126;47.472;7.850;2023-04-25T03:06:26;5.63;;;3.03;;
32760;SDS011;19126;47.472;7.850;2023-04-25T03:08:53;6.43;;;2.95;;
32760;SDS011;19126;47.472;7.850;2023-04-25T03:11:20;5.95;;;3.38;;
32760;SDS011;19126;47.472;7.850;2023-04-25T03:13:48;5.25;;;3.28;;
32760;SDS011;19126;47.472;7.850;2023-04-25T03:16:15;8.02;;;3.47;;
32760;SDS011;19126;47.472;7.850;2023-04-25T03:18:42;5.72;;;2.95;;
32760;SDS011;19126;47.472;7.850;2023-04-25T03:21:09;7.47;;;3.67;;
32760;SDS011;19126;47.472;7.850;2023-04-25T03:23:38;4.80;;;3.05;;
32760;SDS011;19126;47.472;7.850;2023-04-25T03:26:05;6.70;;;3.25;;
32760;SDS011;19126;47.472;7.850;2023-04-25T03:28:32;6.72;;;3.38;;
32760;SDS011;19126;47.472;7.850;2023-04-25T03:31:00;6.10;;;3.55;;
32760;SDS011;19126;47.472;7.850;2023-04-25T03:33:27;7.22;;;3.33;;
32760;SDS011;19126;47.472;7.850;2023-04-25T03:35:54;4.93;;;3.63;;
32760;SDS011;19126;47.472;7.850;2023-04-25T03:38:22;5.47;;;3.22;;
32760;SDS011;19126;47.472;7.850;2023-04-25T03:40:51;5.65;;;3.35;;
32760;SDS011;19126;47.472;7.850;2023-04-25T03:43:18;7.40;;;3.85;;
32760;SDS011;19126;47.472;7.850;2023-04-25T03:45:46;6.40;;;3.63;;
32760;SDS011;19126;47.472;7.850;2023-04-25T03:48:13;5.70;;;2.75;;
32760;SDS011;19126;47.472;7.850;2023-04-25T03:50:40;7.85;;;3.55;;
32760;SDS011;19126;47.472;7.850;2023-04-25T03:53:07;11.57;;;3.65;;
32760;SDS011;19126;47.472;7.850;2023-04-25T03:55:35;4.55;;;3.25;;
32760;SDS011;19126;47.472;7.850;2023-04-25T03:58:04;11.77;;;3.88;;
32760;SDS011;19126;47.472;7.850;2023-04-25T04:00:33;6.50;;;3.60;;
32760;SDS011;19126;47.472;7.850;2023-04-25T04:03:01;8.88;;;3.75;;
32760;SDS011;19126;47.472;7.850;2023-04-25T04:05:28;7.18;;;3.35;;
32760;SDS011;19126;47.472;7.850;2023-04-25T04:07:56;7.78;;;3.60;;
32760;SDS011;19126;47.472;7.850;2023-04-25T04:10:23;7.93;;;3.53;;
32760;SDS011;19126;47.472;7.850;2023-04-25T04:12:51;5.38;;;3.35;;
32760;SDS011;19126;47.472;7.850;2023-04-25T04:15:19;8.77;;;3.90;;
32760;SDS011;19126;47.472;7.850;2023-04-25T04:17:47;11.68;;;5.25;;
32760;SDS011;19126;47.472;7.850;2023-04-25T04:20:15;8.52;;;4.82;;
32760;SDS011;19126;47.472;7.850;2023-04-25T04:22:42;7.70;;;3.63;;
32760;SDS011;19126;47.472;7.850;2023-04-25T04:25:09;6.63;;;4.15;;
32760;SDS011;19126;47.472;7.850;2023-04-25T04:27:37;6.78;;;3.75;;
32760;SDS011;19126;47.472;7.850;2023-04-25T04:30:06;10.23;;;3.88;;
32760;SDS011;19126;47.472;7.850;2023-04-25T04:32:36;7.60;;;3.67;;
32760;SDS011;19126;47.472;7.850;2023-04-25T04:35:03;8.32;;;4.18;;
32760;SDS011;19126;47.472;7.850;2023-04-25T04:37:32;6.18;;;3.78;;
32760;SDS011;19126;47.472;7.850;2023-04-25T04:39:59;8.23;;;4.60;;
32760;SDS011;19126;47.472;7.850;2023-04-25T04:42:30;18.75;;;6.35;;
32760;SDS011;19126;47.472;7.850;2023-04-25T04:44:58;10.00;;;4.57;;
32760;SDS011;19126;47.472;7.850;2023-04-25T04:47:26;15.13;;;6.07;;
32760;SDS011;19126;47.472;7.850;2023-04-25T04:49:57;10.90;;;5.50;;
32760;SDS011;19126;47.472;7.850;2023-04-25T04:52:24;8.23;;;4.68;;
32760;SDS011;19126;47.472;7.850;2023-04-25T04:54:51;10.90;;;5.15;;
32760;SDS011;19126;47.472;7.850;2023-04-25T04:57:19;10.32;;;5.13;;
32760;SDS011;19126;47.472;7.850;2023-04-25T04:59:46;10.35;;;5.30;;
32760;SDS011;19126;47.472;7.850;2023-04-25T05:02:15;5.95;;;4.95;;
32760;SDS011;19126;47.472;7.850;2023-04-25T05:21:57;4.57;;;2.80;;
32760;SDS011;19126;47.472;7.850;2023-04-25T05:24:25;7.03;;;2.80;;
32760;SDS011;19126;47.472;7.850;2023-04-25T05:26:52;5.88;;;2.78;;
32760;SDS011;19126;47.472;7.850;2023-04-25T05:29:19;6.95;;;2.67;;
32760;SDS011;19126;47.472;7.850;2023-04-25T05:31:46;4.13;;;1.95;;
32760;SDS011;19126;47.472;7.850;2023-04-25T05:34:14;8.23;;;2.38;;
32760;SDS011;19126;47.472;7.850;2023-04-25T05:36:41;5.47;;;2.47;;
32760;SDS011;19126;47.472;7.850;2023-04-25T05:39:10;3.40;;;1.90;;
32760;SDS011;19126;47.472;7.850;2023-04-25T05:41:38;4.22;;;1.67;;
32760;SDS011;19126;47.472;7.850;2023-04-25T05:44:06;4.20;;;2.38;;
32760;SDS011;19126;47.472;7.850;2023-04-25T05:46:33;10.55;;;2.40;;
32760;SDS011;19126;47.472;7.850;2023-04-25T05:49:02;5.55;;;1.90;;
32760;SDS011;19126;47.472;7.850;2023-04-25T05:51:30;3.58;;;2.40;;
32760;SDS011;19126;47.472;7.850;2023-04-25T05:53:57;3.67;;;2.33;;
32760;SDS011;19126;47.472;7.850;2023-04-25T05:56:26;4.90;;;3.22;;
32760;SDS011;19126;47.472;7.850;2023-04-25T05:58:54;7.55;;;3.30;;
32760;SDS011;19126;47.472;7.850;2023-04-25T06:01:21;6.53;;;3.60;;
32760;SDS011;19126;47.472;7.850;2023-04-25T06:03:49;4.63;;;2.97;;
32760;SDS011;19126;47.472;7.850;2023-04-25T06:06:17;3.78;;;2.60;;
32760;SDS011;19126;47.472;7.850;2023-04-25T06:08:44;5.30;;;2.53;;
32760;SDS011;19126;47.472;7.850;2023-04-25T06:11:12;6.03;;;2.70;;
32760;SDS011;19126;47.472;7.850;2023-04-25T06:13:41;6.57;;;2.70;;
32760;SDS011;19126;47.472;7.850;2023-04-25T06:16:08;13.13;;;2.90;;
32760;SDS011;19126;47.472;7.850;2023-04-25T06:18:35;7.15;;;2.47;;
32760;SDS011;19126;47.472;7.850;2023-04-25T06:21:03;5.78;;;2.85;;
32760;SDS011;19126;47.472;7.850;2023-04-25T06:23:30;7.38;;;2.63;;
32760;SDS011;19126;47.472;7.850;2023-04-25T06:25:58;4.97;;;2.78;;
32760;SDS011;19126;47.472;7.850;2023-04-25T06:28:25;4.22;;;2.42;;
32760;SDS011;19126;47.472;7.850;2023-04-25T06:30:54;6.03;;;3.08;;
32760;SDS011;19126;47.472;7.850;2023-04-25T06:33:22;9.27;;;2.20;;
32760;SDS011;19126;47.472;7.850;2023-04-25T06:35:49;6.15;;;2.42;;
32760;SDS011;19126;47.472;7.850;2023-04-25T06:38:16;7.25;;;2.22;;
32760;SDS011;19126;47.472;7.850;2023-04-25T06:40:44;4.53;;;2.60;;
32760;SDS011;19126;47.472;7.850;2023-04-25T06:43:11;4.55;;;2.22;;
32760;SDS011;19126;47.472;7.850;2023-04-25T06:45:38;6.43;;;2.35;;
32760;SDS011;19126;47.472;7.850;2023-04-25T06:48:08;5.30;;;2.00;;
32760;SDS011;19126;47.472;7.850;2023-04-25T06:50:35;2.83;;;2.10;;
32760;SDS011;19126;47.472;7.850;2023-04-25T06:53:06;2.85;;;1.95;;
32760;SDS011;19126;47.472;7.850;2023-04-25T06:55:33;3.45;;;1.65;;
32760;SDS011;19126;47.472;7.850;2023-04-25T06:58:01;3.38;;;1.60;;
32760;SDS011;19126;47.472;7.850;2023-04-25T07:00:29;4.45;;;1.85;;
32760;SDS011;19126;47.472;7.850;2023-04-25T07:02:57;3.20;;;1.73;;
32760;SDS011;19126;47.472;7.850;2023-04-25T07:05:26;4.82;;;1.52;;
32760;SDS011;19126;47.472;7.850;2023-04-25T07:07:53;6.63;;;1.67;;
32760;SDS011;19126;47.472;7.850;2023-04-25T07:10:21;7.05;;;1.50;;
32760;SDS011;19126;47.472;7.850;2023-04-25T07:12:48;5.43;;;1.80;;
32760;SDS011;19126;47.472;7.850;2023-04-25T07:15:16;4.35;;;1.95;;
32760;SDS011;19126;47.472;7.850;2023-04-25T07:17:43;4.28;;;1.40;;
32760;SDS011;19126;47.472;7.850;2023-04-25T07:20:13;5.70;;;1.85;;
32760;SDS011;19126;47.472;7.850;2023-04-25T07:22:42;7.65;;;2.30;;
32760;SDS011;19126;47.472;7.850;2023-04-25T07:25:10;2.85;;;1.20;;
32760;SDS011;19126;47.472;7.850;2023-04-25T07:27:37;2.78;;;1.40;;
32760;SDS011;19126;47.472;7.850;2023-04-25T07:30:05;5.05;;;1.83;;
32760;SDS011;19126;47.472;7.850;2023-04-25T07:32:35;2.15;;;1.63;;
32760;SDS011;19126;47.472;7.850;2023-04-25T07:35:03;5.00;;;1.77;;
32760;SDS011;19126;47.472;7.850;2023-04-25T07:37:32;3.10;;;1.42;;
32760;SDS011;19126;47.472;7.850;2023-04-25T07:40:00;3.75;;;1.90;;
32760;SDS011;19126;47.472;7.850;2023-04-25T07:42:29;1.92;;;1.52;;
32760;SDS011;19126;47.472;7.850;2023-04-25T07:44:57;4.45;;;1.80;;
32760;SDS011;19126;47.472;7.850;2023-04-25T07:47:26;5.38;;;3.42;;
32760;SDS011;19126;47.472;7.850;2023-04-25T07:49:54;2.72;;;1.80;;
32760;SDS011;19126;47.472;7.850;2023-04-25T07:52:22;8.18;;;2.13;;
32760;SDS011;19126;47.472;7.850;2023-04-25T07:54:50;5.72;;;2.50;;
32760;SDS011;19126;47.472;7.850;2023-04-25T07:57:19;5.10;;;2.20;;
32760;SDS011;19126;47.472;7.850;2023-04-25T07:59:46;4.30;;;2.38;;
32760;SDS011;19126;47.472;7.850;2023-04-25T08:02:13;3.20;;;1.90;;
32760;SDS011;19126;47.472;7.850;2023-04-25T08:04:41;4.00;;;2.00;;
32760;SDS011;19126;47.472;7.850;2023-04-25T08:07:08;4.35;;;1.77;;
32760;SDS011;19126;47.472;7.850;2023-04-25T08:09:37;5.85;;;1.75;;
32760;SDS011;19126;47.472;7.850;2023-04-25T08:12:05;2.83;;;2.00;;
32760;SDS011;19126;47.472;7.850;2023-04-25T08:14:34;3.45;;;2.00;;
32760;SDS011;19126;47.472;7.850;2023-04-25T08:17:04;4.05;;;2.45;;
32760;SDS011;19126;47.472;7.850;2023-04-25T08:19:32;4.70;;;2.05;;
32760;SDS011;19126;47.472;7.850;2023-04-25T08:21:59;3.72;;;1.85;;
32760;SDS011;19126;47.472;7.850;2023-04-25T08:24:27;2.88;;;2.05;;
32760;SDS011;19126;47.472;7.850;2023-04-25T08:26:54;2.22;;;1.75;;
32760;SDS011;19126;47.472;7.850;2023-04-25T08:29:22;8.32;;;2.15;;
32760;SDS011;19126;47.472;7.850;2023-04-25T08:31:52;2.92;;;1.80;;
32760;SDS011;19126;47.472;7.850;2023-04-25T08:34:19;2.97;;;2.03;;
32760;SDS011;19126;47.472;7.850;2023-04-25T08:36:46;1.52;;;1.40;;
32760;SDS011;19126;47.472;7.850;2023-04-25T08:39:14;4.38;;;2.38;;
32760;SDS011;19126;47.472;7.850;2023-04-25T08:41:41;5.97;;;1.75;;
32760;SDS011;19126;47.472;7.850;2023-04-25T08:44:09;3.17;;;1.95;;
32760;SDS011;19126;47.472;7.850;2023-04-25T08:46:37;4.28;;;1.90;;
32760;SDS011;19126;47.472;7.850;2023-04-25T08:49:07;1.70;;;1.60;;
32760;SDS011;19126;47.472;7.850;2023-04-25T08:51:35;3.00;;;1.48;;
32760;SDS011;19126;47.472;7.850;2023-04-25T08:54:15;3.80;;;1.77;;
32760;SDS011;19126;47.472;7.850;2023-04-25T08:56:43;3.30;;;1.50;;
32760;SDS011;19126;47.472;7.850;2023-04-25T08:59:13;2.30;;;1.50;;
32760;SDS011;19126;47.472;7.850;2023-04-25T09:01:41;1.35;;;1.25;;
32760;SDS011;19126;47.472;7.850;2023-04-25T09:04:09;4.25;;;1.40;;
32760;SDS011;19126;47.472;7.850;2023-04-25T09:06:38;5.25;;;1.75;;
32760;SDS011;19126;47.472;7.850;2023-04-25T09:09:06;3.40;;;1.45;;
32760;SDS011;19126;47.472;7.850;2023-04-25T09:11:36;3.15;;;1.50;;
32760;SDS011;19126;47.472;7.850;2023-04-25T09:14:10;3.05;;;1.25;;
32760;SDS011;19126;47.472;7.850;2023-04-25T09:19:30;4.93;;;1.80;;
32760;SDS011;19126;47.472;7.850;2023-04-25T09:22:01;4.07;;;1.30;;
32760;SDS011;19126;47.472;7.850;2023-04-25T09:24:34;4.80;;;1.60;;
32760;SDS011;19126;47.472;7.850;2023-04-25T09:27:03;4.20;;;2.10;;
32760;SDS011;19126;47.472;7.850;2023-04-25T09:29:32;4.28;;;1.88;;
32760;SDS011;19126;47.472;7.850;2023-04-25T09:32:10;2.10;;;1.70;;
32760;SDS011;19126;47.472;7.850;2023-04-25T09:34:43;2.47;;;1.48;;
32760;SDS011;19126;47.472;7.850;2023-04-25T09:37:16;2.80;;;1.30;;
32760;SDS011;19126;47.472;7.850;2023-04-25T09:39:47;3.40;;;1.75;;
32760;SDS011;19126;47.472;7.850;2023-04-25T09:42:15;3.00;;;1.52;;
32760;SDS011;19126;47.472;7.850;2023-04-25T09:44:44;2.08;;;1.40;;
32760;SDS011;19126;47.472;7.850;2023-04-25T09:47:13;4.45;;;1.52;;
32760;SDS011;19126;47.472;7.850;2023-04-25T09:49:44;3.90;;;1.30;;
32760;SDS011;19126;47.472;7.850;2023-04-25T09:52:13;6.57;;;1.48;;
32760;SDS011;19126;47.472;7.850;2023-04-25T09:54:42;4.45;;;1.73;;
32760;SDS011;19126;47.472;7.850;2023-04-25T11:01:19;2.50;;;1.60;;
32760;SDS011;19126;47.472;7.850;2023-04-25T11:03:57;4.57;;;1.40;;
32760;SDS011;19126;47.472;7.850;2023-04-25T11:06:27;9.73;;;1.73;;
32760;SDS011;19126;47.472;7.850;2023-04-25T11:09:08;4.45;;;1.77;;
32760;SDS011;19126;47.472;7.850;2023-04-25T11:11:39;3.10;;;2.20;;
32760;SDS011;19126;47.472;7.850;2023-04-25T11:14:06;2.70;;;1.45;;
32760;SDS011;19126;47.472;7.850;2023-04-25T11:16:35;2.55;;;1.30;;
32760;SDS011;19126;47.472;7.850;2023-04-25T11:19:14;1.70;;;1.40;;
32760;SDS011;19126;47.472;7.850;2023-04-25T11:21:41;3.75;;;1.48;;
32760;SDS011;19126;47.472;7.850;2023-04-25T11:24:09;3.72;;;1.92;;
32760;SDS011;19126;47.472;7.850;2023-04-25T11:26:37;8.23;;;2.30;;
32760;SDS011;19126;47.472;7.850;2023-04-25T11:29:09;7.15;;;1.98;;
32760;SDS011;19126;47.472;7.850;2023-04-25T11:31:45;4.53;;;1.65;;
32760;SDS011;19126;47.472;7.850;2023-04-25T11:34:16;6.97;;;1.48;;
32760;SDS011;19126;47.472;7.850;2023-04-25T11:36:44;2.10;;;1.20;;
32760;SDS011;19126;47.472;7.850;2023-04-25T11:39:12;3.35;;;1.48;;
32760;SDS011;19126;47.472;7.850;2023-04-25T11:41:40;4.72;;;1.50;;
32760;SDS011;19126;47.472;7.850;2023-04-25T11:44:08;5.28;;;2.60;;
32760;SDS011;19126;47.472;7.850;2023-04-25T11:46:36;4.30;;;1.30;;
32760;SDS011;19126;47.472;7.850;2023-04-25T11:49:04;5.05;;;2.25;;
32760;SDS011;19126;47.472;7.850;2023-04-25T11:51:37;2.80;;;1.40;;
32760;SDS011;19126;47.472;7.850;2023-04-25T11:54:05;2.22;;;1.38;;
32760;SDS011;19126;47.472;7.850;2023-04-25T11:56:33;3.90;;;1.70;;
32760;SDS011;19126;47.472;7.850;2023-04-25T11:59:01;4.93;;;1.90;;
32760;SDS011;19126;47.472;7.850;2023-04-25T12:01:30;4.47;;;2.97;;
32760;SDS011;19126;47.472;7.850;2023-04-25T12:04:09;2.72;;;1.75;;
32760;SDS011;19126;47.472;7.850;2023-04-25T12:06:40;4.72;;;1.60;;
32760;SDS011;19126;47.472;7.850;2023-04-25T12:09:09;6.03;;;1.52;;
32760;SDS011;19126;47.472;7.850;2023-04-25T12:11:41;5.15;;;2.47;;
32760;SDS011;19126;47.472;7.850;2023-04-25T12:14:09;3.60;;;1.10;;
32760;SDS011;19126;47.472;7.850;2023-04-25T12:16:40;2.67;;;1.40;;
32760;SDS011;19126;47.472;7.850;2023-04-25T12:19:08;2.40;;;1.50;;
32760;SDS011;19126;47.472;7.850;2023-04-25T12:21:38;3.28;;;1.58;;
32760;SDS011;19126;47.472;7.850;2023-04-25T12:24:09;1.98;;;1.20;;
32760;SDS011;19126;47.472;7.850;2023-04-25T12:26:48;2.22;;;1.30;;
32760;SDS011;19126;47.472;7.850;2023-04-25T12:29:18;1.88;;;1.33;;
32760;SDS011;19126;47.472;7.850;2023-04-25T12:31:47;1.10;;;1.00;;
32760;SDS011;19126;47.472;7.850;2023-04-25T12:34:16;3.63;;;1.13;;
32760;SDS011;19126;47.472;7.850;2023-04-25T12:36:45;2.60;;;1.15;;
32760;SDS011;19126;47.472;7.850;2023-04-25T12:39:16;1.70;;;0.90;;
32760;SDS011;19126;47.472;7.850;2023-04-25T12:41:44;3.92;;;1.10;;
32760;SDS011;19126;47.472;7.850;2023-04-25T12:44:12;2.70;;;1.50;;
32760;SDS011;19126;47.472;7.850;2023-04-25T12:46:40;3.80;;;1.30;;
32760;SDS011;19126;47.472;7.850;2023-04-25T12:49:08;3.33;;;1.10;;
32760;SDS011;19126;47.472;7.850;2023-04-25T12:51:36;5.25;;;1.20;;
32760;SDS011;19126;47.472;7.850;2023-04-25T12:54:05;3.65;;;1.10;;
32760;SDS011;19126;47.472;7.850;2023-04-25T12:56:33;6.18;;;1.42;;
32760;SDS011;19126;47.472;7.850;2023-04-25T12:59:01;3.15;;;1.38;;
32760;SDS011;19126;47.472;7.850;2023-04-25T13:01:29;2.20;;;1.23;;
32760;SDS011;19126;47.472;7.850;2023-04-25T13:03:57;3.80;;;1.25;;
32760;SDS011;19126;47.472;7.850;2023-04-25T13:06:24;4.93;;;1.60;;
32760;SDS011;19126;47.472;7.850;2023-04-25T13:08:52;7.80;;;1.50;;
32760;SDS011;19126;47.472;7.850;2023-04-25T13:11:21;5.85;;;1.20;;
32760;SDS011;19126;47.472;7.850;2023-04-25T13:13:48;6.75;;;1.52;;
32760;SDS011;19126;47.472;7.850;2023-04-25T13:16:15;4.63;;;1.48;;
32760;SDS011;19126;47.472;7.850;2023-04-25T13:18:45;2.75;;;1.20;;
32760;SDS011;19126;47.472;7.850;2023-04-25T13:21:13;2.85;;;1.30;;
32760;SDS011;19126;47.472;7.850;2023-04-25T13:23:40;1.95;;;1.10;;
32760;SDS011;19126;47.472;7.850;2023-04-25T13:26:08;1.42;;;1.10;;
32760;SDS011;19126;47.472;7.850;2023-04-25T13:28:37;2.88;;;1.50;;
32760;SDS011;19126;47.472;7.850;2023-04-25T13:31:05;5.20;;;1.58;;
32760;SDS011;19126;47.472;7.850;2023-04-25T13:33:32;3.90;;;2.20;;
32760;SDS011;19126;47.472;7.850;2023-04-25T13:36:00;4.55;;;2.20;;
32760;SDS011;19126;47.472;7.850;2023-04-25T13:38:28;8.20;;;2.17;;
32760;SDS011;19126;47.472;7.850;2023-04-25T13:40:55;6.00;;;1.45;;
32760;SDS011;19126;47.472;7.850;2023-04-25T13:43:22;3.90;;;1.50;;
32760;SDS011;19126;47.472;7.850;2023-04-25T13:45:51;2.60;;;1.33;;
32760;SDS011;19126;47.472;7.850;2023-04-25T13:48:19;4.75;;;1.60;;
32760;SDS011;19126;47.472;7.850;2023-04-25T13:50:47;2.85;;;1.00;;
32760;SDS011;19126;47.472;7.850;2023-04-25T13:53:15;1.17;;;0.88;;
32760;SDS011;19126;47.472;7.850;2023-04-25T13:55:42;2.33;;;1.20;;
32760;SDS011;19126;47.472;7.850;2023-04-25T13:58:10;3.45;;;1.52;;
32760;SDS011;19126;47.472;7.850;2023-04-25T14:00:38;4.60;;;1.35;;
32760;SDS011;19126;47.472;7.850;2023-04-25T14:03:09;3.03;;;1.30;;
32760;SDS011;19126;47.472;7.850;2023-04-25T14:05:37;3.15;;;0.85;;
32760;SDS011;19126;47.472;7.850;2023-04-25T14:08:05;2.47;;;1.10;;
32760;SDS011;19126;47.472;7.850;2023-04-25T14:22:47;3.95;;;1.85;;
32760;SDS011;19126;47.472;7.850;2023-04-25T14:35:37;4.00;;;1.73;;
32760;SDS011;19126;47.472;7.850;2023-04-25T14:38:06;1.63;;;1.08;;
32760;SDS011;19126;47.472;7.850;2023-04-25T14:40:34;3.97;;;1.38;;
32760;SDS011;19126;47.472;7.850;2023-04-25T14:43:01;6.82;;;1.23;;
32760;SDS011;19126;47.472;7.850;2023-04-25T14:45:29;5.43;;;1.05;;
32760;SDS011;19126;47.472;7.850;2023-04-25T14:47:56;3.45;;;1.92;;
32760;SDS011;19126;47.472;7.850;2023-04-25T14:50:24;5.93;;;1.38;;
32760;SDS011;19126;47.472;7.850;2023-04-25T14:52:51;1.45;;;1.08;;
32760;SDS011;19126;47.472;7.850;2023-04-25T14:55:20;4.15;;;1.60;;
32760;SDS011;19126;47.472;7.850;2023-04-25T14:57:47;9.60;;;1.42;;
32760;SDS011;19126;47.472;7.850;2023-04-25T15:00:15;3.08;;;1.40;;
32760;SDS011;19126;47.472;7.850;2023-04-25T15:02:44;3.50;;;1.52;;
32760;SDS011;19126;47.472;7.850;2023-04-25T15:05:12;2.97;;;1.40;;
32760;SDS011;19126;47.472;7.850;2023-04-25T15:07:40;4.10;;;1.15;;
32760;SDS011;19126;47.472;7.850;2023-04-25T15:10:07;3.78;;;1.35;;
32760;SDS011;19126;47.472;7.850;2023-04-25T15:12:40;5.77;;;1.80;;
32760;SDS011;19126;47.472;7.850;2023-04-25T15:15:07;2.65;;;1.33;;
32760;SDS011;19126;47.472;7.850;2023-04-25T15:17:36;1.48;;;1.02;;
32760;SDS011;19126;47.472;7.850;2023-04-25T15:20:07;2.13;;;1.10;;
32760;SDS011;19126;47.472;7.850;2023-04-25T15:22:40;3.30;;;1.40;;
32760;SDS011;19126;47.472;7.850;2023-04-25T15:25:10;3.97;;;1.75;;
32760;SDS011;19126;47.472;7.850;2023-04-25T15:27:38;1.13;;;0.98;;
32760;SDS011;19126;47.472;7.850;2023-04-25T15:30:09;3.27;;;1.30;;
32760;SDS011;19126;47.472;7.850;2023-04-25T15:32:38;3.60;;;0.93;;
32760;SDS011;19126;47.472;7.850;2023-04-25T15:35:06;4.13;;;1.23;;
32760;SDS011;19126;47.472;7.850;2023-04-25T15:37:34;3.10;;;1.50;;
32760;SDS011;19126;47.472;7.850;2023-04-25T15:40:02;4.13;;;1.33;;
32760;SDS011;19126;47.472;7.850;2023-04-25T15:42:34;2.47;;;1.63;;
32760;SDS011;19126;47.472;7.850;2023-04-25T15:45:03;1.75;;;1.20;;
32760;SDS011;19126;47.472;7.850;2023-04-25T15:47:38;3.57;;;1.40;;
32760;SDS011;19126;47.472;7.850;2023-04-25T15:50:07;2.17;;;1.25;;
32760;SDS011;19126;47.472;7.850;2023-04-25T15:52:35;2.65;;;1.00;;
32760;SDS011;19126;47.472;7.850;2023-04-25T15:55:04;2.45;;;1.30;;
32760;SDS011;19126;47.472;7.850;2023-04-25T15:57:33;2.03;;;1.38;;
32760;SDS011;19126;47.472;7.850;2023-04-25T16:00:03;2.53;;;1.30;;
32760;SDS011;19126;47.472;7.850;2023-04-25T16:02:35;3.10;;;1.52;;
32760;SDS011;19126;47.472;7.850;2023-04-25T16:05:03;3.10;;;1.50;;
32760;SDS011;19126;47.472;7.850;2023-04-25T16:07:30;1.52;;;1.23;;
32760;SDS011;19126;47.472;7.850;2023-04-25T16:09:58;2.22;;;1.38;;
32760;SDS011;19126;47.472;7.850;2023-04-25T16:12:25;3.67;;;1.30;;
32760;SDS011;19126;47.472;7.850;2023-04-25T16:14:53;2.83;;;1.30;;
32760;SDS011;19126;47.472;7.850;2023-04-25T16:17:23;2.15;;;1.20;;
32760;SDS011;19126;47.472;7.850;2023-04-25T16:19:52;2.70;;;1.52;;
32760;SDS011;19126;47.472;7.850;2023-04-25T16:22:19;4.78;;;1.30;;
32760;SDS011;19126;47.472;7.850;2023-04-25T16:24:46;1.92;;;1.13;;
32760;SDS011;19126;47.472;7.850;2023-04-25T16:27:14;3.50;;;1.67;;
32760;SDS011;19126;47.472;7.850;2023-04-25T16:29:41;6.45;;;2.15;;
32760;SDS011;19126;47.472;7.850;2023-04-25T16:32:08;2.17;;;1.50;;
32760;SDS011;19126;47.472;7.850;2023-04-25T16:34:38;5.43;;;1.85;;
32760;SDS011;19126;47.472;7.850;2023-04-25T16:37:05;3.20;;;1.50;;
32760;SDS011;19126;47.472;7.850;2023-04-25T16:39:33;3.28;;;1.60;;
32760;SDS011;19126;47.472;7.850;2023-04-25T16:42:00;4.13;;;1.85;;